Cranston, Rhode Island
Current Conditions -  °F | °C
As of 9:00 AM on Thursday 23 Oct 2014 (Local Time) from KPVD Reporting Station
Overcast Overcast  
Wind Chill: 54°   Ceiling: 1500
Heat Index: 54°   Visibility: 10mi
Dew Point: 49°   Wind: 23mph
Humidity: 83%   Direction: 10°N
Pressure: 29.61"   Gusts: 30mph
Location:  41.78°N, 71.43°W
Report Text: KPVD 231300Z 01020G26KT 10SM OVC015 12/09 A2961 RMK AO2 PK WND 36026/1300 T01220094
Loading
Personal Weather Stations






























Interactive Weather Map
Tropical Storm Tracking
New forecast layout! Learn more

10-Day Weather Forecast

Advertisements
Track Severe Weather on mobile